sensor_id;sensor_type;location;lat;lon;timestamp;pressure;altitude;pressure_sealevel;temperature
62932;BMP280;49037;41.898;25.004;2023-08-06T05:48:34;95115.91;;;24.77
62932;BMP280;49037;41.898;25.004;2023-08-06T05:51:47;95082.13;;;24.55
62932;BMP280;49037;41.898;25.004;2023-08-06T06:07:26;95159.81;;;23.72
62932;BMP280;49037;41.898;25.004;2023-08-06T06:09:54;95162.06;;;23.84
62932;BMP280;49037;41.898;25.004;2023-08-06T06:13:18;95179.34;;;23.96
62932;BMP280;49037;41.898;25.004;2023-08-06T06:39:42;95072.69;;;23.10
62932;BMP280;49037;41.898;25.004;2023-08-06T06:43:12;95063.50;;;22.96
62932;BMP280;49037;41.898;25.004;2023-08-06T06:45:37;95068.13;;;22.87
62932;BMP280;49037;41.898;25.004;2023-08-06T06:48:05;95083.53;;;23.08
62932;BMP280;49037;41.898;25.004;2023-08-06T06:50:31;95093.94;;;23.18
62932;BMP280;49037;41.898;25.004;2023-08-06T06:52:58;95103.53;;;23.20
62932;BMP280;49037;41.898;25.004;2023-08-06T06:55:28;95091.09;;;23.12
62932;BMP280;49037;41.898;25.004;2023-08-06T06:58:15;95102.09;;;23.16
62932;BMP280;49037;41.898;25.004;2023-08-06T07:00:41;95115.31;;;22.98
62932;BMP280;49037;41.898;25.004;2023-08-06T07:03:09;95124.22;;;23.00
62932;BMP280;49037;41.898;25.004;2023-08-06T07:05:37;95137.19;;;23.02
62932;BMP280;49037;41.898;25.004;2023-08-06T07:08:13;95144.84;;;23.09
62932;BMP280;49037;41.898;25.004;2023-08-06T07:10:43;95155.78;;;22.82
62932;BMP280;49037;41.898;25.004;2023-08-06T07:47:25;95138.56;;;24.02
62932;BMP280;49037;41.898;25.004;2023-08-06T09:13:32;95230.41;;;21.05
62932;BMP280;49037;41.898;25.004;2023-08-06T09:15:58;95202.16;;;21.35
62932;BMP280;49037;41.898;25.004;2023-08-06T09:18:27;95198.91;;;21.87
62932;BMP280;49037;41.898;25.004;2023-08-06T09:20:56;95187.94;;;22.33
62932;BMP280;49037;41.898;25.004;2023-08-06T09:23:28;95180.69;;;22.71
62932;BMP280;49037;41.898;25.004;2023-08-06T09:25:55;95177.66;;;23.15
62932;BMP280;49037;41.898;25.004;2023-08-06T09:28:20;95176.25;;;23.45
62932;BMP280;49037;41.898;25.004;2023-08-06T09:30:47;95179.81;;;23.85
62932;BMP280;49037;41.898;25.004;2023-08-06T09:33:17;95163.00;;;23.98
62932;BMP280;49037;41.898;25.004;2023-08-06T09:35:46;95165.38;;;24.13
62932;BMP280;49037;41.898;25.004;2023-08-06T09:38:12;95186.53;;;24.54
62932;BMP280;49037;41.898;25.004;2023-08-06T09:41:41;95175.19;;;24.69
62932;BMP280;49037;41.898;25.004;2023-08-06T09:44:20;95176.44;;;25.07
62932;BMP280;49037;41.898;25.004;2023-08-06T09:46:49;95157.59;;;25.29
62932;BMP280;49037;41.898;25.004;2023-08-06T09:49:46;95161.50;;;25.68
62932;BMP280;49037;41.898;25.004;2023-08-06T10:00:10;95160.97;;;26.54
62932;BMP280;49037;41.898;25.004;2023-08-06T10:02:48;95160.03;;;26.22
62932;BMP280;49037;41.898;25.004;2023-08-06T10:05:52;95136.25;;;26.42
62932;BMP280;49037;41.898;25.004;2023-08-06T10:08:56;95142.03;;;26.88
62932;BMP280;49037;41.898;25.004;2023-08-06T10:11:30;95142.13;;;27.02
62932;BMP280;49037;41.898;25.004;2023-08-06T10:14:48;95143.50;;;27.01
62932;BMP280;49037;41.898;25.004;2023-08-06T10:17:15;95141.44;;;27.05
62932;BMP280;49037;41.898;25.004;2023-08-06T10:20:13;95147.06;;;27.27
62932;BMP280;49037;41.898;25.004;2023-08-06T10:22:45;95144.63;;;26.64
62932;BMP280;49037;41.898;25.004;2023-08-06T10:25:25;95148.53;;;26.43
62932;BMP280;49037;41.898;25.004;2023-08-06T10:28:22;95146.00;;;26.65
62932;BMP280;49037;41.898;25.004;2023-08-06T10:31:02;95152.38;;;26.95
62932;BMP280;49037;41.898;25.004;2023-08-06T10:33:43;95130.47;;;26.99
62932;BMP280;49037;41.898;25.004;2023-08-06T10:36:40;95129.13;;;27.10
62932;BMP280;49037;41.898;25.004;2023-08-06T10:39:05;95146.78;;;26.83
62932;BMP280;49037;41.898;25.004;2023-08-06T10:42:15;95135.22;;;26.95
62932;BMP280;49037;41.898;25.004;2023-08-06T11:03:09;95152.06;;;28.82
62932;BMP280;49037;41.898;25.004;2023-08-06T11:31:43;95166.50;;;28.13
62932;BMP280;49037;41.898;25.004;2023-08-06T11:34:11;95170.59;;;27.95
62932;BMP280;49037;41.898;25.004;2023-08-06T11:37:02;95175.44;;;28.08
62932;BMP280;49037;41.898;25.004;2023-08-06T11:40:40;95182.97;;;28.15
62932;BMP280;49037;41.898;25.004;2023-08-06T11:43:35;95179.53;;;28.13
62932;BMP280;49037;41.898;25.004;2023-08-06T11:46:55;95178.19;;;28.22
62932;BMP280;49037;41.898;25.004;2023-08-06T12:11:21;95200.84;;;28.99
62932;BMP280;49037;41.898;25.004;2023-08-06T12:13:50;95193.28;;;28.96
62932;BMP280;49037;41.898;25.004;2023-08-06T12:16:33;95202.88;;;28.89
62932;BMP280;49037;41.898;25.004;2023-08-06T12:19:03;95193.25;;;29.07
62932;BMP280;49037;41.898;25.004;2023-08-06T12:24:28;95208.22;;;29.48
62932;BMP280;49037;41.898;25.004;2023-08-06T12:26:59;95201.25;;;29.70
62932;BMP280;49037;41.898;25.004;2023-08-06T12:29:43;95185.44;;;29.67
62932;BMP280;49037;41.898;25.004;2023-08-06T12:32:11;95199.25;;;29.59
62932;BMP280;49037;41.898;25.004;2023-08-06T12:35:00;95192.34;;;29.72
62932;BMP280;49037;41.898;25.004;2023-08-06T12:37:40;95198.56;;;29.59
62932;BMP280;49037;41.898;25.004;2023-08-06T12:40:08;95195.78;;;29.65
62932;BMP280;49037;41.898;25.004;2023-08-06T12:42:41;95193.03;;;29.67
62932;BMP280;49037;41.898;25.004;2023-08-06T12:45:10;95193.81;;;29.47
62932;BMP280;49037;41.898;25.004;2023-08-06T12:47:36;95187.00;;;29.23
62932;BMP280;49037;41.898;25.004;2023-08-06T12:50:04;95174.63;;;29.24
62932;BMP280;49037;41.898;25.004;2023-08-06T12:52:43;95188.22;;;29.65
62932;BMP280;49037;41.898;25.004;2023-08-06T12:55:08;95182.75;;;29.53
62932;BMP280;49037;41.898;25.004;2023-08-06T12:57:39;95187.47;;;29.72
62932;BMP280;49037;41.898;25.004;2023-08-06T13:00:14;95182.69;;;29.69
62932;BMP280;49037;41.898;25.004;2023-08-06T13:03:13;95180.78;;;29.36
62932;BMP280;49037;41.898;25.004;2023-08-06T13:05:41;95185.69;;;28.96
62932;BMP280;49037;41.898;25.004;2023-08-06T13:08:09;95189.81;;;29.01
62932;BMP280;49037;41.898;25.004;2023-08-06T13:10:44;95194.59;;;29.16
62932;BMP280;49037;41.898;25.004;2023-08-06T13:16:12;95189.09;;;29.24
62932;BMP280;49037;41.898;25.004;2023-08-06T13:18:45;95176.69;;;29.21
62932;BMP280;49037;41.898;25.004;2023-08-06T13:21:16;95202.84;;;29.18
62932;BMP280;49037;41.898;25.004;2023-08-06T13:23:44;95187.69;;;29.17
62932;BMP280;49037;41.898;25.004;2023-08-06T13:26:10;95197.97;;;29.33
62932;BMP280;49037;41.898;25.004;2023-08-06T13:28:35;95192.47;;;29.35
62932;BMP280;49037;41.898;25.004;2023-08-06T13:31:01;95182.16;;;29.37
62932;BMP280;49037;41.898;25.004;2023-08-06T13:33:39;95197.91;;;29.52
62932;BMP280;49037;41.898;25.004;2023-08-06T13:36:07;95199.25;;;29.61
62932;BMP280;49037;41.898;25.004;2023-08-06T13:38:33;95188.22;;;29.65
62932;BMP280;49037;41.898;25.004;2023-08-06T13:40:58;95189.53;;;29.74
62932;BMP280;49037;41.898;25.004;2023-08-06T13:43:27;95192.22;;;29.88
62932;BMP280;49037;41.898;25.004;2023-08-06T13:45:54;95199.06;;;29.99
62932;BMP280;49037;41.898;25.004;2023-08-06T13:48:20;95201.16;;;29.94
62932;BMP280;49037;41.898;25.004;2023-08-06T13:50:45;95185.31;;;29.89
62932;BMP280;49037;41.898;25.004;2023-08-06T13:53:11;95201.78;;;30.01
62932;BMP280;49037;41.898;25.004;2023-08-06T13:55:51;95193.75;;;29.63
62932;BMP280;49037;41.898;25.004;2023-08-06T13:58:17;95212.97;;;29.71
62932;BMP280;49037;41.898;25.004;2023-08-06T14:00:44;95219.13;;;29.75
62932;BMP280;49037;41.898;25.004;2023-08-06T14:03:10;95203.31;;;29.68
62932;BMP280;49037;41.898;25.004;2023-08-06T14:05:37;95217.03;;;29.86
62932;BMP280;49037;41.898;25.004;2023-08-06T14:08:03;95207.31;;;29.97
62932;BMP280;49037;41.898;25.004;2023-08-06T14:10:29;95213.59;;;29.85
62932;BMP280;49037;41.898;25.004;2023-08-06T14:12:54;95200.56;;;29.74
62932;BMP280;49037;41.898;25.004;2023-08-06T14:15:20;95214.25;;;29.88
62932;BMP280;49037;41.898;25.004;2023-08-06T14:17:45;95208.94;;;29.48
62932;BMP280;49037;41.898;25.004;2023-08-06T14:20:11;95224.03;;;29.55
62932;BMP280;49037;41.898;25.004;2023-08-06T14:22:39;95235.06;;;29.57
62932;BMP280;49037;41.898;25.004;2023-08-06T14:25:05;95243.31;;;29.57
62932;BMP280;49037;41.898;25.004;2023-08-06T14:27:31;95224.69;;;29.62
62932;BMP280;49037;41.898;25.004;2023-08-06T14:29:57;95218.53;;;29.57
62932;BMP280;49037;41.898;25.004;2023-08-06T14:32:22;95222.63;;;29.62
62932;BMP280;49037;41.898;25.004;2023-08-06T14:34:48;95224.03;;;29.55
62932;BMP280;49037;41.898;25.004;2023-08-06T14:37:16;95222.69;;;29.52
62932;BMP280;49037;41.898;25.004;2023-08-06T14:39:42;95207.59;;;29.38
62932;BMP280;49037;41.898;25.004;2023-08-06T14:42:08;95228.25;;;29.29
62932;BMP280;49037;41.898;25.004;2023-08-06T14:44:33;95222.09;;;29.18
62932;BMP280;49037;41.898;25.004;2023-08-06T14:46:58;95238.59;;;29.22
62932;BMP280;49037;41.898;25.004;2023-08-06T14:49:24;95237.94;;;29.10
62932;BMP280;49037;41.898;25.004;2023-08-06T14:51:50;95246.22;;;28.94
62932;BMP280;49037;41.898;25.004;2023-08-06T14:54:16;95245.50;;;28.72
62932;BMP280;49037;41.898;25.004;2023-08-06T14:57:00;95246.22;;;28.59
62932;BMP280;49037;41.898;25.004;2023-08-06T14:59:28;95261.31;;;28.62
62932;BMP280;49037;41.898;25.004;2023-08-06T15:01:54;95255.13;;;28.55
62932;BMP280;49037;41.898;25.004;2023-08-06T15:04:19;95252.38;;;28.45
62932;BMP280;49037;41.898;25.004;2023-08-06T15:06:45;95259.94;;;28.47
62932;BMP280;49037;41.898;25.004;2023-08-06T15:09:11;95253.72;;;28.38
62932;BMP280;49037;41.898;25.004;2023-08-06T15:11:37;95237.91;;;28.23
62932;BMP280;49037;41.898;25.004;2023-08-06T15:14:02;95257.19;;;28.37
62932;BMP280;49037;41.898;25.004;2023-08-06T15:16:33;95259.88;;;28.23
62932;BMP280;49037;41.898;25.004;2023-08-06T15:19:02;95257.13;;;28.13
62932;BMP280;49037;41.898;25.004;2023-08-06T15:21:27;95248.81;;;27.90
62932;BMP280;49037;41.898;25.004;2023-08-06T15:23:54;95255.72;;;27.97
62932;BMP280;49037;41.898;25.004;2023-08-06T15:26:19;95259.81;;;28.00
62932;BMP280;49037;41.898;25.004;2023-08-06T15:30:19;95246.75;;;27.88
62932;BMP280;49037;41.898;25.004;2023-08-06T15:32:46;95243.34;;;27.90
62932;BMP280;49037;41.898;25.004;2023-08-06T15:35:12;95258.41;;;27.85
62932;BMP280;49037;41.898;25.004;2023-08-06T15:37:37;95255.69;;;27.85
62932;BMP280;49037;41.898;25.004;2023-08-06T15:40:03;95237.84;;;27.88
62932;BMP280;49037;41.898;25.004;2023-08-06T15:42:29;95241.88;;;27.71
62932;BMP280;49037;41.898;25.004;2023-08-06T15:44:54;95250.03;;;27.59
62932;BMP280;49037;41.898;25.004;2023-08-06T15:47:19;95232.84;;;27.47
62932;BMP280;49037;41.898;25.004;2023-08-06T15:49:45;95249.31;;;27.53
62932;BMP280;49037;41.898;25.004;2023-08-06T15:52:10;95241.06;;;27.47
62932;BMP280;49037;41.898;25.004;2023-08-06T15:54:36;95250.00;;;27.47
62932;BMP280;49037;41.898;25.004;2023-08-06T15:57:01;95262.41;;;27.54
62932;BMP280;49037;41.898;25.004;2023-08-06T15:59:31;95276.88;;;27.73
62932;BMP280;49037;41.898;25.004;2023-08-06T16:03:43;95276.19;;;27.74
62932;BMP280;49037;41.898;25.004;2023-08-06T16:06:16;95280.34;;;27.83
62932;BMP280;49037;41.898;25.004;2023-08-06T16:08:49;95278.38;;;27.99
62932;BMP280;49037;41.898;25.004;2023-08-06T16:11:15;95270.81;;;28.02
62932;BMP280;49037;41.898;25.004;2023-08-06T16:13:40;95281.84;;;28.23
62932;BMP280;49037;41.898;25.004;2023-08-06T16:16:05;95274.25;;;28.02
62932;BMP280;49037;41.898;25.004;2023-08-06T16:18:31;95283.13;;;27.93
62932;BMP280;49037;41.898;25.004;2023-08-06T16:20:56;95274.16;;;27.78
62932;BMP280;49037;41.898;25.004;2023-08-06T16:23:22;95280.97;;;27.72
62932;BMP280;49037;41.898;25.004;2023-08-06T16:25:48;95280.94;;;27.68
62932;BMP280;49037;41.898;25.004;2023-08-06T16:28:13;95278.78;;;27.42
62932;BMP280;49037;41.898;25.004;2023-08-06T16:30:46;95278.00;;;27.30
62932;BMP280;49037;41.898;25.004;2023-08-06T16:33:12;95266.97;;;27.18
62932;BMP280;49037;41.898;25.004;2023-08-06T16:35:37;95268.97;;;27.12
62932;BMP280;49037;41.898;25.004;2023-08-06T16:38:03;95263.97;;;26.83
62932;BMP280;49037;41.898;25.004;2023-08-06T16:40:28;95273.47;;;26.74
62932;BMP280;49037;41.898;25.004;2023-08-06T16:42:53;95272.06;;;26.71
62932;BMP280;49037;41.898;25.004;2023-08-06T16:45:19;95287.78;;;26.67
62932;BMP280;49037;41.898;25.004;2023-08-06T16:47:45;95276.59;;;26.43
62932;BMP280;49037;41.898;25.004;2023-08-06T16:50:10;95292.22;;;26.35
62932;BMP280;49037;41.898;25.004;2023-08-06T16:52:36;95292.75;;;26.19
62932;BMP280;49037;41.898;25.004;2023-08-06T16:55:01;95287.16;;;26.07
62932;BMP280;49037;41.898;25.004;2023-08-06T16:57:27;95286.44;;;26.07
62932;BMP280;49037;41.898;25.004;2023-08-06T16:59:52;95293.88;;;25.99
62932;BMP280;49037;41.898;25.004;2023-08-06T17:02:18;95290.84;;;25.75
62932;BMP280;49037;41.898;25.004;2023-08-06T17:04:44;95300.34;;;25.70
62932;BMP280;49037;41.898;25.004;2023-08-06T17:07:10;95294.03;;;25.58
62932;BMP280;49037;41.898;25.004;2023-08-06T17:09:45;95300.59;;;25.39
62932;BMP280;49037;41.898;25.004;2023-08-06T17:14:29;95315.84;;;25.11
62932;BMP280;49037;41.898;25.004;2023-08-06T17:16:54;95305.19;;;24.84
62932;BMP280;49037;41.898;25.004;2023-08-06T17:19:25;95316.03;;;24.82
62932;BMP280;49037;41.898;25.004;2023-08-06T17:21:50;95323.94;;;24.64
62932;BMP280;49037;41.898;25.004;2023-08-06T17:24:16;95335.31;;;24.53
62932;BMP280;49037;41.898;25.004;2023-08-06T17:26:41;95330.34;;;24.43
62932;BMP280;49037;41.898;25.004;2023-08-06T17:29:31;95335.56;;;24.31
62932;BMP280;49037;41.898;25.004;2023-08-06T17:31:56;95339.09;;;24.36
62932;BMP280;49037;41.898;25.004;2023-08-06T17:34:25;95340.16;;;24.23
62932;BMP280;49037;41.898;25.004;2023-08-06T17:36:55;95346.78;;;24.12
62932;BMP280;49037;41.898;25.004;2023-08-06T17:39:31;95336.22;;;23.97
62932;BMP280;49037;41.898;25.004;2023-08-06T17:41:57;95336.81;;;23.93
62932;BMP280;49037;41.898;25.004;2023-08-06T17:44:22;95351.22;;;23.98
62932;BMP280;49037;41.898;25.004;2023-08-06T17:46:48;95354.34;;;23.85
62932;BMP280;49037;41.898;25.004;2023-08-06T17:49:13;95356.84;;;23.75
